Time;durP1;ratioP1;P1;durP2;ratioP2;P2;SDS_P1;SDS_P2;PMS_P1;PMS_P2;Temp;Humidity;BMP_temperature;BMP_pressure;BME280_temperature;BME280_humidity;BME280_pressure;Samples;Min_cycle;Max_cycle;Signal;HPM_P1;HPM_P2
2022/12/21 00:01:22;;;;;;;91.97;35.20;;;;;;;-4.54;84.34;100124.13;1642742;87;20981;-76
2022/12/21 00:03:58;;;;;;;91.15;34.27;;;;;;;-4.62;84.04;100130.08;1646647;87;20977;-76
2022/12/21 00:06:28;;;;;;;101.30;34.45;;;;;;;-4.66;84.48;100120.96;1641347;86;20965;-76
2022/12/21 00:08:59;;;;;;;96.37;34.43;;;;;;;-4.70;84.40;100122.86;1649264;87;20973;-76
2022/12/21 00:11:28;;;;;;;84.60;32.30;;;;;;;-4.69;85.08;100119.55;1643543;86;21527;-76
2022/12/21 00:13:58;;;;;;;91.95;31.45;;;;;;;-4.66;85.33;100117.16;1645686;87;21091;-76
2022/12/21 00:16:28;;;;;;;95.45;34.50;;;;;;;-4.66;84.93;100117.16;1646964;87;21008;-76
2022/12/21 00:18:56;;;;;;;77.05;28.57;;;;;;;-4.65;84.88;100118.52;1648832;85;21127;-76
2022/12/21 00:21:27;;;;;;;76.28;28.60;;;;;;;-4.68;84.82;100121.28;1638100;86;20953;-75
2022/12/21 00:23:58;;;;;;;79.15;27.58;;;;;;;-4.65;85.14;100115.98;1658634;86;21473;-76
2022/12/21 00:26:28;;;;;;;76.20;26.93;;;;;;;-4.61;84.92;100109.00;1656547;86;21051;-76
2022/12/21 00:28:57;;;;;;;74.58;27.32;;;;;;;-4.63;84.82;100119.88;1643724;86;21043;-75
2022/12/21 00:31:28;;;;;;;76.00;29.18;;;;;;;-4.66;84.71;100117.16;1650787;86;21016;-76
2022/12/21 00:33:56;;;;;;;72.47;27.93;;;;;;;-4.64;84.81;100112.63;1650513;86;20996;-76
2022/12/21 00:36:25;;;;;;;71.75;27.52;;;;;;;-4.61;85.06;100105.19;1652477;86;21820;-76
2022/12/21 00:38:52;;;;;;;70.32;25.68;;;;;;;-4.56;84.83;100098.20;1626686;86;21028;-76
2022/12/21 00:41:21;;;;;;;68.57;26.85;;;;;;;-4.51;84.62;100114.16;1650721;86;21846;-76
2022/12/21 00:43:52;;;;;;;70.55;25.20;;;;;;;-4.46;84.67;100114.38;1651815;86;20988;-76
2022/12/21 00:46:24;;;;;;;62.17;23.25;;;;;;;-4.53;84.35;100097.11;1649550;86;20972;-76
2022/12/21 00:48:51;;;;;;;72.35;26.35;;;;;;;-4.53;84.35;100097.11;1652760;86;21005;-75
2022/12/21 00:51:22;;;;;;;64.77;24.70;;;;;;;-4.54;84.68;100098.75;1657327;86;21532;-76
2022/12/21 00:53:49;;;;;;;70.75;24.40;;;;;;;-4.54;84.82;100097.89;1648747;86;20977;-76
2022/12/21 00:56:18;;;;;;;63.10;24.85;;;;;;;-4.60;84.82;100098.06;1644032;86;20985;-76
2022/12/21 00:58:45;;;;;;;58.10;22.73;;;;;;;-4.60;84.82;100098.06;1649104;86;20999;-76
2022/12/21 01:01:20;;;;;;;64.10;25.90;;;;;;;-4.71;85.19;100086.48;1656570;86;21012;-75
2022/12/21 01:03:46;;;;;;;58.58;23.52;;;;;;;-4.71;85.19;100086.48;1651508;86;20979;-76
2022/12/21 01:06:23;;;;;;;58.83;20.88;;;;;;;-4.72;85.38;100088.93;1656536;86;21009;-76
2022/12/21 01:08:49;;;;;;;58.78;22.77;;;;;;;-4.72;86.09;100094.87;1651717;86;21016;-76
2022/12/21 01:11:18;;;;;;;56.23;21.50;;;;;;;-4.72;85.65;100078.78;1654811;86;20981;-76
2022/12/21 01:13:47;;;;;;;58.10;24.63;;;;;;;-4.77;85.51;100083.63;1652551;86;21015;-76
2022/12/21 01:16:24;;;;;;;53.02;22.82;;;;;;;-4.76;85.79;100083.22;1647913;86;21012;-76
2022/12/21 01:18:51;;;;;;;55.85;24.43;;;;;;;-4.75;86.27;100076.11;1633731;86;21618;-76
2022/12/21 01:21:25;;;;;;;71.05;24.30;;;;;;;-4.74;86.87;100076.56;1629599;87;21056;-76
2022/12/21 01:23:53;;;;;;;62.05;21.27;;;;;;;-4.75;86.42;100068.49;1624492;88;21453;-76
2022/12/21 01:26:20;;;;;;;59.50;22.42;;;;;;;-4.71;86.27;100069.98;1572242;91;21988;-76
2022/12/21 01:28:47;;;;;;;57.73;20.32;;;;;;;-4.77;86.37;100067.14;1580684;90;21069;-76
2022/12/21 01:31:14;;;;;;;62.43;20.40;;;;;;;-4.75;86.89;100074.43;1572580;89;21091;-76
2022/12/21 01:33:42;;;;;;;50.80;20.02;;;;;;;-4.75;86.91;100076.11;1635568;87;21154;-76
2022/12/21 01:36:14;;;;;;;54.65;21.70;;;;;;;-4.71;86.70;100072.53;1618391;87;20996;-76
2022/12/21 01:38:43;;;;;;;52.48;19.98;;;;;;;-4.73;86.81;100061.43;1630458;88;21032;-76
2022/12/21 01:41:17;;;;;;;52.05;20.12;;;;;;;-4.76;86.84;100056.18;1628267;87;21004;-77
2022/12/21 01:43:54;;;;;;;55.50;20.05;;;;;;;-4.78;86.68;100040.41;1616330;88;21524;-76
2022/12/21 01:46:38;;;;;;;57.93;22.15;;;;;;;-4.72;86.97;100044.13;1624562;87;21000;-76
2022/12/21 01:49:15;;;;;;;49.00;16.20;;;;;;;-4.69;86.96;100044.70;1625567;88;22043;-76
2022/12/21 01:51:46;;;;;;;51.25;21.15;;;;;;;-4.68;86.88;100043.48;1571452;90;20995;-75
2022/12/21 01:54:20;;;;;;;50.70;19.85;;;;;;;-4.64;86.94;100044.52;1626712;88;20973;-76
2022/12/21 01:56:50;;;;;;;60.03;23.67;;;;;;;-4.62;86.87;100044.20;1569981;90;21504;-76
2022/12/21 01:59:22;;;;;;;51.85;22.67;;;;;;;-4.56;87.07;100043.64;1637063;87;21948;-76
2022/12/21 02:01:48;;;;;;;55.20;20.43;;;;;;;-4.58;86.67;100036.34;1620604;87;21072;-76
2022/12/21 02:04:15;;;;;;;44.88;18.95;;;;;;;-4.53;86.62;100036.20;1630747;87;21052;-76
2022/12/21 02:06:58;;;;;;;48.63;19.98;;;;;;;-4.50;86.63;100028.72;1626399;87;21035;-76
2022/12/21 02:09:29;;;;;;;59.65;21.50;;;;;;;-4.47;86.41;100030.16;1620175;88;20996;-76
2022/12/21 02:11:57;;;;;;;49.08;20.35;;;;;;;-4.50;86.26;100028.72;1628054;87;21028;-76
2022/12/21 02:14:27;;;;;;;51.48;20.52;;;;;;;-4.44;86.19;100027.75;1619293;88;21481;-76
2022/12/21 02:17:29;;;;;;;55.73;21.23;;;;;;;-4.44;86.05;100018.87;1630026;87;21044;-76
2022/12/21 02:20:24;;;;;;;68.15;21.00;;;;;;;-4.43;85.78;100019.36;1632984;87;21024;-76
2022/12/21 02:23:05;;;;;;;66.42;22.45;;;;;;;-4.43;85.56;100014.28;1636732;87;21031;-76
2022/12/21 02:26:28;;;;;;;67.65;21.50;;;;;;;-4.50;85.35;99996.59;1633190;87;21605;-76
2022/12/21 02:29:22;;;;;;;48.25;20.00;;;;;;;-4.47;85.05;100006.91;1627217;87;21060;-76
2022/12/21 02:32:20;;;;;;;54.70;22.62;;;;;;;-4.47;84.74;99996.75;1639431;87;21019;-76
2022/12/21 02:34:52;;;;;;;58.35;21.73;;;;;;;-4.50;84.67;99984.30;1627991;87;21064;-76
2022/12/21 02:37:30;;;;;;;55.33;19.75;;;;;;;-4.50;84.44;99991.91;1641503;87;21056;-76
2022/12/21 02:40:17;;;;;;;55.88;22.00;;;;;;;-4.60;84.37;99978.80;1634631;87;21000;-76
2022/12/21 02:45:54;;;;;;;69.60;25.00;;;;;;;-4.55;84.72;99976.88;1626662;87;21610;-76
2022/12/21 02:48:42;;;;;;;60.35;23.47;;;;;;;-4.56;84.68;99979.79;1637525;87;21571;-76
2022/12/21 02:51:13;;;;;;;63.95;22.30;;;;;;;-4.58;84.59;99980.52;1627100;87;20999;-77
2022/12/21 02:53:41;;;;;;;59.73;21.17;;;;;;;-4.63;84.60;99978.63;1583369;89;21542;-76
2022/12/21 02:56:17;;;;;;;54.85;21.23;;;;;;;-4.65;84.71;99980.22;1627518;87;21059;-75
2022/12/21 02:58:45;;;;;;;52.93;19.87;;;;;;;-4.69;84.54;99980.00;1632583;87;21114;-76
2022/12/21 03:01:36;;;;;;;55.30;20.70;;;;;;;-4.70;84.55;99979.11;1617475;87;21031;-76
2022/12/21 03:04:27;;;;;;;49.95;20.80;;;;;;;-4.67;84.48;99971.66;1639659;87;21631;-75
2022/12/21 03:07:13;;;;;;;60.33;22.25;;;;;;;;;;1625592;87;21063;-76
2022/12/21 03:10:14;;;;;;;57.27;20.70;;;;;;;-4.66;84.03;99979.73;1636450;87;21099;-75
2022/12/21 03:12:55;;;;;;;56.77;21.42;;;;;;;-4.67;84.16;99970.39;1620456;87;21099;-76
2022/12/21 03:15:36;;;;;;;56.23;21.30;;;;;;;-4.63;84.33;99975.23;1636067;87;21035;-76
2022/12/21 03:18:20;;;;;;;57.35;25.70;;;;;;;-4.66;84.13;99974.66;1628501;86;21621;-76
2022/12/21 03:21:11;;;;;;;57.65;22.40;;;;;;;-4.66;84.40;99967.05;1632893;86;21093;-76
2022/12/21 03:23:58;;;;;;;61.55;22.52;;;;;;;-4.62;84.38;99977.81;1630408;87;21034;-75
2022/12/21 03:26:35;;;;;;;61.13;22.45;;;;;;;-4.59;84.21;99968.23;1630029;86;21514;-76
2022/12/21 03:29:04;;;;;;;63.35;24.72;;;;;;;-4.58;83.57;99969.97;1627137;87;21954;-76
2022/12/21 03:31:35;;;;;;;66.25;24.47;;;;;;;-4.61;83.38;99968.16;1628681;86;21030;-76
2022/12/21 03:34:22;;;;;;;56.13;20.88;;;;;;;-4.61;83.74;99964.34;1628389;87;21021;-75
2022/12/21 03:37:00;;;;;;;53.87;18.87;;;;;;;-4.62;82.87;99960.45;1631579;87;21506;-76
2022/12/21 03:39:29;;;;;;;50.30;18.23;;;;;;;-4.62;82.87;99960.45;1618197;88;21955;-76
2022/12/21 03:42:19;;;;;;;47.23;16.73;;;;;;;-4.69;82.84;99963.10;1610393;88;21029;-76
2022/12/21 03:44:56;;;;;;;46.37;18.00;;;;;;;-4.69;83.12;99967.31;1606578;89;21049;-76
2022/12/21 03:47:34;;;;;;;47.60;17.92;;;;;;;-4.70;83.12;99958.80;1605539;88;21012;-76
2022/12/21 03:50:08;;;;;;;49.65;18.80;;;;;;;-4.74;83.05;99950.57;1605997;89;21007;-76
2022/12/21 03:53:07;;;;;;;41.58;17.20;;;;;;;-4.85;83.28;99937.77;1606523;88;21535;-76
2022/12/21 03:55:37;;;;;;;48.58;18.55;;;;;;;-4.81;83.39;99950.67;1609855;89;21039;-76
2022/12/21 03:58:06;;;;;;;51.75;20.88;;;;;;;-4.85;83.31;99949.19;1584602;89;21057;-76
2022/12/21 04:00:46;;;;;;;56.50;21.23;;;;;;;-4.93;83.31;99945.00;1608740;89;21394;-76
2022/12/21 04:03:21;;;;;;;59.18;22.55;;;;;;;-4.92;83.73;99956.00;1565230;89;20997;-76
2022/12/21 04:05:55;;;;;;;54.05;20.85;;;;;;;-5.05;83.49;99949.45;1588904;89;21096;-76
2022/12/21 04:08:24;;;;;;;59.33;20.55;;;;;;;-5.13;83.81;99946.89;1587405;90;20965;-76
2022/12/21 04:10:52;;;;;;;63.90;22.15;;;;;;;-5.15;84.23;99948.11;1600114;88;21008;-76
2022/12/21 04:13:18;;;;;;;58.70;23.38;;;;;;;-5.15;84.18;99940.87;1613332;88;20992;-76
2022/12/21 04:16:03;;;;;;;61.45;25.40;;;;;;;-5.11;84.28;99949.11;1605130;89;21065;-76
2022/12/21 04:21:15;;;;;;;63.38;22.75;;;;;;;-5.12;83.98;99946.98;1597393;89;21518;-76
2022/12/21 04:29:11;;;;;;;47.85;20.57;;;;;;;-5.14;84.91;99944.77;1597374;89;20997;-76
2022/12/21 04:31:38;;;;;;;56.10;21.42;;;;;;;-5.11;84.86;99941.50;1598476;89;20997;-76
2022/12/21 04:34:04;;;;;;;60.30;20.92;;;;;;;-5.11;84.78;99937.33;1597181;89;21030;-75
2022/12/21 04:39:16;;;;;;;55.70;21.82;;;;;;;-5.20;85.01;99919.10;1597560;89;21020;-76
2022/12/21 04:41:42;;;;;;;47.20;19.70;;;;;;;-5.20;85.01;99919.10;1597602;89;21039;-76
2022/12/21 04:44:09;;;;;;;50.63;19.82;;;;;;;-5.25;85.40;99916.34;1596398;89;21043;-76
2022/12/21 04:46:35;;;;;;;53.52;18.87;;;;;;;-5.26;85.08;99902.31;1594172;89;21625;-76
2022/12/21 04:49:02;;;;;;;94.17;32.75;;;;;;;-5.29;85.28;99904.31;1593294;89;20991;-76
2022/12/21 04:51:28;;;;;;;90.57;33.95;;;;;;;-5.27;85.69;99909.43;1597436;89;21011;-76
2022/12/21 04:53:55;;;;;;;74.03;29.90;;;;;;;-5.23;85.61;99908.42;1598296;89;21935;-76
2022/12/21 04:56:21;;;;;;;82.40;33.53;;;;;;;-5.22;85.44;99906.75;1596722;90;21083;-76
2022/12/21 04:58:48;;;;;;;63.85;26.07;;;;;;;-5.18;85.36;99902.30;1596439;90;21099;-76
2022/12/21 05:01:18;;;;;;;62.70;26.52;;;;;;;-5.18;85.36;99902.30;1596687;90;21020;-76
2022/12/21 05:03:46;;;;;;;74.07;24.82;;;;;;;-5.14;85.52;99902.93;1588037;89;21026;-76
2022/12/21 05:06:15;;;;;;;72.78;24.35;;;;;;;-5.08;85.61;99898.57;1578929;91;21101;-76
2022/12/21 05:08:42;;;;;;;63.50;23.73;;;;;;;-5.02;85.75;99904.80;1579797;90;21025;-76
2022/12/21 05:11:14;;;;;;;60.10;21.20;;;;;;;-4.98;85.48;99902.03;1579948;91;21054;-76
2022/12/21 05:13:42;;;;;;;53.28;21.45;;;;;;;-4.94;85.34;99896.31;1580103;90;21479;-76
2022/12/21 05:16:17;;;;;;;58.10;20.70;;;;;;;-4.89;85.41;99894.03;1579847;90;21606;-75
2022/12/21 05:18:45;;;;;;;54.65;22.20;;;;;;;-4.84;85.28;99893.84;1576495;91;21278;-76
2022/12/21 05:21:12;;;;;;;71.35;29.45;;;;;;;-4.79;85.10;99892.41;1572487;91;21653;-76
2022/12/21 05:23:39;;;;;;;106.00;36.48;;;;;;;-4.79;84.65;99896.22;1572543;90;21077;-76
2022/12/21 05:26:08;;;;;;;125.62;38.23;;;;;;;-4.82;84.28;99888.03;1572499;91;21157;-76
2022/12/21 05:28:35;;;;;;;93.87;31.00;;;;;;;-4.85;83.80;99893.38;1573291;90;21614;-76
2022/12/21 05:31:04;;;;;;;91.60;30.82;;;;;;;-4.88;83.81;99889.41;1564314;92;21021;-76
2022/12/21 05:33:31;;;;;;;67.03;26.23;;;;;;;-4.90;83.64;99885.53;1564246;90;21057;-76
2022/12/21 05:36:03;;;;;;;73.55;26.07;;;;;;;-4.89;83.65;99891.09;1572395;90;21122;-76
2022/12/21 05:38:30;;;;;;;82.15;27.00;;;;;;;-4.91;83.76;99893.95;1573328;90;21110;-75
2022/12/21 05:40:57;;;;;;;76.92;26.93;;;;;;;-4.90;83.81;99898.20;1563626;92;21544;-75
2022/12/21 05:43:23;;;;;;;75.83;26.95;;;;;;;-4.91;83.92;99896.48;1572686;90;21082;-76
2022/12/21 05:45:50;;;;;;;48.85;19.95;;;;;;;-4.93;83.89;99899.34;1563533;90;21024;-75
2022/12/21 05:48:17;;;;;;;62.17;22.87;;;;;;;-4.92;83.96;99906.14;1573875;90;21705;-76
2022/12/21 05:50:43;;;;;;;69.00;25.72;;;;;;;-4.98;83.99;99895.70;1587193;90;21054;-76
2022/12/21 05:53:10;;;;;;;59.53;23.10;;;;;;;-4.95;84.10;99894.97;1625265;88;21065;-75
2022/12/21 05:55:36;;;;;;;64.75;22.00;;;;;;;-5.01;84.00;99891.76;1625300;88;21515;-76
2022/12/21 05:58:03;;;;;;;60.65;22.98;;;;;;;-4.98;84.02;99898.23;1624458;88;21083;-76
2022/12/21 06:00:30;;;;;;;60.30;23.90;;;;;;;-4.96;83.99;99905.52;1624367;88;21050;-76
2022/12/21 06:02:57;;;;;;;64.60;23.62;;;;;;;-4.96;83.89;99903.39;1624924;88;21067;-76
2022/12/21 06:05:24;;;;;;;74.37;25.25;;;;;;;-4.95;83.84;99903.84;1625728;88;21531;-76
2022/12/21 06:07:50;;;;;;;75.92;29.67;;;;;;;-4.94;83.83;99899.26;1624763;88;21054;-75
2022/12/21 06:10:17;;;;;;;91.47;29.65;;;;;;;-4.91;84.05;99899.02;1624370;88;21051;-76
2022/12/21 06:12:43;;;;;;;88.92;28.90;;;;;;;-4.89;84.14;99898.70;1624465;88;21074;-75
2022/12/21 06:15:10;;;;;;;81.45;28.02;;;;;;;-4.85;84.30;99905.66;1624405;88;21066;-76
2022/12/21 06:17:37;;;;;;;65.97;23.47;;;;;;;-4.80;84.25;99900.80;1624235;87;21684;-76
2022/12/21 06:20:05;;;;;;;87.10;23.90;;;;;;;-4.77;84.27;99900.97;1624291;87;21079;-75
2022/12/21 06:22:35;;;;;;;60.15;21.20;;;;;;;-4.74;84.20;99898.97;1624626;88;21586;-76
2022/12/21 06:25:03;;;;;;;56.77;23.00;;;;;;;-4.74;84.30;99906.17;1624299;88;21039;-76
2022/12/21 06:27:30;;;;;;;52.48;23.60;;;;;;;-4.75;84.26;99906.12;1624372;88;21062;-76
2022/12/21 06:29:57;;;;;;;50.17;21.70;;;;;;;-4.75;84.48;99900.64;1624237;88;21091;-75
2022/12/21 06:32:23;;;;;;;54.30;21.37;;;;;;;-4.71;84.79;99908.87;1582126;88;21059;-75
2022/12/21 06:34:49;;;;;;;71.42;23.65;;;;;;;-4.71;84.40;99896.19;1587486;89;21173;-76
2022/12/21 06:37:16;;;;;;;67.70;24.15;;;;;;;-4.74;84.69;99892.63;1589341;89;21071;-76
2022/12/21 06:39:42;;;;;;;65.72;22.62;;;;;;;-4.70;85.17;99880.16;1600254;89;21059;-76
2022/12/21 06:42:09;;;;;;;63.05;23.45;;;;;;;-4.70;85.17;99880.16;1592873;89;21084;-76
2022/12/21 06:44:37;;;;;;;63.33;23.27;;;;;;;-4.61;85.01;99889.48;1592548;89;21000;-76
2022/12/21 06:47:04;;;;;;;68.42;22.85;;;;;;;-4.53;85.13;99887.73;1581827;89;21084;-76
2022/12/21 06:49:31;;;;;;;86.75;30.57;;;;;;;-4.46;85.23;99890.60;1593850;89;21623;-76
2022/12/21 06:51:57;;;;;;;68.85;26.40;;;;;;;-4.41;85.04;99888.30;1597255;89;21027;-76
2022/12/21 06:54:24;;;;;;;59.50;22.00;;;;;;;-4.40;84.85;99890.92;1590647;89;21048;-76
2022/12/21 06:56:50;;;;;;;62.88;22.48;;;;;;;-4.39;84.79;99889.25;1599893;89;21080;-75
2022/12/21 06:59:17;;;;;;;48.70;18.37;;;;;;;-4.41;84.66;99884.50;1587317;89;21083;-76
2022/12/21 07:01:43;;;;;;;63.50;22.85;;;;;;;-4.38;84.84;99887.57;1601533;89;21047;-76
2022/12/21 07:04:10;;;;;;;60.90;20.90;;;;;;;-4.38;84.84;99887.57;1588463;89;21055;-76
2022/12/21 07:06:36;;;;;;;60.40;21.48;;;;;;;-4.36;84.77;99884.30;1601200;89;21083;-76
2022/12/21 07:09:03;;;;;;;53.95;22.37;;;;;;;-4.45;84.89;99870.78;1585419;89;21075;-76
2022/12/21 07:11:30;;;;;;;68.00;25.43;;;;;;;-4.39;85.00;99866.41;1600281;89;21020;-76
2022/12/21 07:13:56;;;;;;;47.25;19.70;;;;;;;-4.26;85.03;99878.87;1594423;89;21599;-76
2022/12/21 07:16:24;;;;;;;63.05;22.80;;;;;;;-4.23;84.89;99877.73;1584396;89;21004;-76
2022/12/21 07:18:51;;;;;;;55.90;22.02;;;;;;;-4.16;85.10;99879.28;1599144;87;21146;-76
2022/12/21 07:21:20;;;;;;;69.77;24.07;;;;;;;-4.10;85.17;99866.48;1605420;88;21052;-75
2022/12/21 07:23:48;;;;;;;66.72;24.50;;;;;;;-4.02;85.21;99868.98;1619712;88;21052;-76
2022/12/21 07:26:19;;;;;;;59.67;21.35;;;;;;;-3.97;85.16;99878.06;1601233;88;21044;-76
2022/12/21 07:28:47;;;;;;;53.75;20.60;;;;;;;-3.87;85.34;99876.41;1618919;88;20997;-76
2022/12/21 07:31:19;;;;;;;55.67;20.48;;;;;;;-3.76;85.10;99866.73;1607781;88;21056;-77
2022/12/21 07:33:46;;;;;;;55.80;20.62;;;;;;;-3.65;85.12;99867.20;1601525;88;21543;-76
2022/12/21 07:36:13;;;;;;;58.13;22.52;;;;;;;-3.50;85.26;99874.61;1607928;88;21064;-76
2022/12/21 07:38:43;;;;;;;48.15;20.52;;;;;;;-3.47;84.95;99861.64;1619245;88;21073;-76
2022/12/21 07:41:13;;;;;;;61.20;22.48;;;;;;;-3.40;84.91;99857.71;1610319;88;21064;-76
2022/12/21 07:43:40;;;;;;;49.93;19.62;;;;;;;-3.27;85.09;99853.59;1618753;88;21099;-75
2022/12/21 07:46:16;;;;;;;70.30;26.40;;;;;;;-3.12;85.24;99852.11;1612319;88;21013;-76
2022/12/21 07:48:42;;;;;;;50.45;22.77;;;;;;;-3.02;84.60;99857.18;1618064;88;21065;-76
2022/12/21 07:51:09;;;;;;;74.65;26.80;;;;;;;-2.90;84.98;99855.55;1615588;88;21052;-76
2022/12/21 07:53:36;;;;;;;73.33;25.48;;;;;;;-2.80;84.89;99850.02;1621858;88;21024;-76
2022/12/21 07:56:16;;;;;;;62.73;23.40;;;;;;;-2.73;84.85;99854.94;1610117;88;21079;-76
2022/12/21 07:58:42;;;;;;;70.83;24.95;;;;;;;-2.63;84.96;99850.68;1620640;88;21012;-76
2022/12/21 08:01:13;;;;;;;62.58;20.30;;;;;;;-2.60;84.45;99850.41;1619357;88;21057;-76
2022/12/21 08:03:42;;;;;;;67.15;24.75;;;;;;;-2.61;84.51;99851.23;1620005;88;21024;-76
2022/12/21 08:06:09;;;;;;;65.65;24.00;;;;;;;-2.56;84.68;99852.67;1617582;88;20989;-76
2022/12/21 08:08:37;;;;;;;56.60;22.32;;;;;;;-2.50;84.71;99846.95;1613667;88;21133;-76
2022/12/21 08:11:04;;;;;;;75.32;27.90;;;;;;;-2.43;84.68;99856.55;1617514;88;21004;-76
2022/12/21 08:13:31;;;;;;;66.55;23.10;;;;;;;-2.43;84.03;99855.28;1607404;88;21108;-76
2022/12/21 08:16:02;;;;;;;61.50;21.45;;;;;;;-2.48;84.06;99862.75;1613218;88;21091;-76
2022/12/21 08:18:28;;;;;;;76.72;25.62;;;;;;;-2.47;84.10;99863.20;1607340;87;21108;-76
2022/12/21 08:20:56;;;;;;;61.18;20.72;;;;;;;-2.45;84.27;99855.25;1621854;87;21087;-75
2022/12/21 08:23:23;;;;;;;52.03;21.12;;;;;;;-2.40;83.94;99852.87;1619222;88;21096;-76
2022/12/21 08:25:51;;;;;;;65.22;25.17;;;;;;;-2.37;84.31;99856.79;1622514;88;22134;-76
2022/12/21 08:28:18;;;;;;;60.12;22.52;;;;;;;-2.43;83.82;99855.28;1622392;87;21096;-76
2022/12/21 08:30:45;;;;;;;66.45;26.02;;;;;;;-2.40;84.25;99859.23;1621705;88;21044;-76
2022/12/21 08:33:12;;;;;;;67.55;23.25;;;;;;;-2.30;84.51;99854.09;1622276;87;21048;-76
2022/12/21 08:35:38;;;;;;;65.40;25.20;;;;;;;-2.18;84.76;99848.61;1621329;88;21020;-76
2022/12/21 08:38:04;;;;;;;54.20;21.80;;;;;;;-2.12;84.26;99852.24;1624317;87;21012;-76
2022/12/21 08:40:31;;;;;;;51.30;19.82;;;;;;;-2.03;84.30;99851.70;1618071;88;21000;-77
2022/12/21 08:42:58;;;;;;;55.67;21.82;;;;;;;-2.05;83.69;99858.42;1624678;87;21036;-76
2022/12/21 08:45:24;;;;;;;54.58;20.40;;;;;;;-2.10;83.50;99854.44;1619442;88;21032;-76
2022/12/21 08:47:52;;;;;;;44.75;18.23;;;;;;;-2.09;83.70;99850.20;1627567;87;21020;-76
2022/12/21 08:50:18;;;;;;;61.92;21.25;;;;;;;-2.12;83.54;99846.28;1618088;88;21033;-76
2022/12/21 08:52:45;;;;;;;67.32;21.85;;;;;;;-2.08;83.68;99843.91;1629150;87;21048;-76
2022/12/21 08:55:11;;;;;;;66.37;24.00;;;;;;;-2.05;83.48;99841.48;1625285;88;21547;-76
2022/12/21 08:57:38;;;;;;;52.73;20.60;;;;;;;-2.06;82.97;99846.52;1630853;87;21055;-76
2022/12/21 09:00:09;;;;;;;50.35;19.45;;;;;;;-2.04;83.48;99848.71;1616484;88;21599;-76
2022/12/21 09:02:37;;;;;;;53.52;21.23;;;;;;;-1.97;83.66;99837.05;1610791;88;21028;-76
2022/12/21 09:05:05;;;;;;;46.50;18.17;;;;;;;-1.94;83.62;99847.38;1614814;87;21897;-76
2022/12/21 09:07:32;;;;;;;57.93;20.68;;;;;;;-1.91;83.56;99840.72;1632022;87;21012;-76
2022/12/21 09:09:59;;;;;;;48.70;18.10;;;;;;;-1.83;83.98;99830.78;1619588;87;21063;-76
2022/12/21 09:12:27;;;;;;;53.05;18.82;;;;;;;-1.72;84.11;99835.01;1630642;88;20984;-76
2022/12/21 09:14:53;;;;;;;48.48;18.92;;;;;;;-1.59;84.06;99830.81;1626407;87;21068;-77
2022/12/21 09:17:20;;;;;;;47.03;17.90;;;;;;;-1.48;83.87;99819.29;1625292;88;21040;-76
2022/12/21 09:19:46;;;;;;;63.13;23.30;;;;;;;-1.38;83.68;99824.72;1625420;86;21593;-76
2022/12/21 09:22:13;;;;;;;53.38;19.48;;;;;;;-1.24;83.96;99819.67;1609892;88;21065;-76
2022/12/21 09:24:39;;;;;;;64.42;23.47;;;;;;;-1.08;83.98;99813.40;1606673;88;21029;-76
2022/12/21 09:27:06;;;;;;;51.58;20.43;;;;;;;-0.89;84.05;99821.27;1602624;88;21126;-76
2022/12/21 09:29:33;;;;;;;57.78;23.05;;;;;;;-0.78;83.44;99811.38;1607521;88;21126;-76
2022/12/21 09:31:59;;;;;;;55.65;20.82;;;;;;;-0.64;84.01;99806.30;1601002;89;21560;-76
2022/12/21 09:34:26;;;;;;;58.63;23.20;;;;;;;-0.54;82.99;99807.45;1588431;89;21061;-76
2022/12/21 09:36:52;;;;;;;53.75;21.97;;;;;;;-0.42;82.81;99803.60;1597869;88;21002;-76
2022/12/21 09:39:19;;;;;;;53.30;22.75;;;;;;;-0.32;81.96;99803.47;1603749;89;21561;-76
2022/12/21 09:41:54;;;;;;;79.17;33.28;;;;;;;-0.22;82.19;99800.36;1613057;89;21041;-77
2022/12/21 09:44:32;;;;;;;65.78;25.60;;;;;;;-0.08;81.32;99790.93;1613208;89;21354;-76
2022/12/21 09:47:01;;;;;;;67.42;25.17;;;;;;;0.06;81.73;99783.27;1601899;88;21060;-76
2022/12/21 09:49:39;;;;;;;55.80;22.13;;;;;;;0.23;81.65;99781.16;1600370;89;21021;-76
2022/12/21 09:52:20;;;;;;;61.30;24.40;;;;;;;0.38;81.74;99769.22;1606492;88;20986;-76
2022/12/21 09:55:00;;;;;;;63.33;23.77;;;;;;;0.49;80.51;99763.95;1601988;89;21014;-76
2022/12/21 09:57:32;;;;;;;70.15;24.43;;;;;;;0.64;80.89;99762.61;1583489;89;21013;-77
2022/12/21 10:00:00;;;;;;;56.95;21.93;;;;;;;0.75;80.58;99760.77;1613854;88;21493;-76
2022/12/21 10:02:50;;;;;;;65.42;26.77;;;;;;;0.86;80.75;99753.38;1606466;88;20958;-76
2022/12/21 10:05:53;;;;;;;57.00;23.18;;;;;;;0.94;80.48;99751.01;1603929;89;21025;-76
2022/12/21 10:08:46;;;;;;;63.50;24.40;;;;;;;0.96;79.70;99752.77;1591294;88;21052;-76
2022/12/21 10:11:21;;;;;;;55.28;21.60;;;;;;;0.99;80.33;99743.00;1613736;89;20993;-76
2022/12/21 10:14:23;;;;;;;65.08;26.17;;;;;;;0.98;79.57;99737.02;1597099;88;22357;-76
2022/12/21 10:17:01;;;;;;;57.15;22.35;;;;;;;1.01;79.46;99739.20;1599075;88;21029;-77
2022/12/21 10:19:48;;;;;;;60.00;23.73;;;;;;;1.03;79.57;99733.70;1601702;87;21110;-76
2022/12/21 10:22:31;;;;;;;67.72;23.02;;;;;;;1.04;79.66;99725.20;1611252;88;21343;-76
2022/12/21 10:25:04;;;;;;;74.97;30.90;;;;;;;1.02;79.63;99728.16;1601873;89;21049;-76
2022/12/21 10:27:36;;;;;;;69.20;24.87;;;;;;;0.95;79.55;99720.30;1611302;88;21226;-76
2022/12/21 10:30:05;;;;;;;66.37;28.77;;;;;;;0.88;79.12;99721.00;1599552;88;21060;-76
2022/12/21 10:32:34;;;;;;;66.75;25.12;;;;;;;0.88;79.36;99718.86;1603719;88;21025;-77
2022/12/21 10:35:33;;;;;;;68.87;27.10;;;;;;;0.86;79.44;99720.52;1605513;89;21092;-76
2022/12/21 10:38:01;;;;;;;59.15;23.70;;;;;;;0.83;79.16;99705.93;1509818;93;21636;-76
2022/12/21 10:40:31;;;;;;;64.60;26.50;;;;;;;0.85;79.55;99709.81;1584318;89;21032;-76
2022/12/21 10:42:58;;;;;;;58.33;24.35;;;;;;;0.84;79.84;99707.67;1612510;89;21093;-76
2022/12/21 10:45:25;;;;;;;63.17;25.60;;;;;;;0.85;80.08;99697.02;1601620;88;21060;-76
2022/12/21 10:47:52;;;;;;;56.00;21.00;;;;;;;0.89;79.99;99696.25;1598901;89;21362;-76
2022/12/21 10:50:27;;;;;;;63.30;25.85;;;;;;;0.95;80.06;99683.17;1608886;88;21017;-76
2022/12/21 10:52:57;;;;;;;76.15;27.02;;;;;;;1.03;80.36;99680.79;1597347;89;21052;-76
2022/12/21 10:55:32;;;;;;;69.62;27.60;;;;;;;1.13;80.15;99673.76;1602052;88;21057;-76
2022/12/21 10:58:18;;;;;;;65.62;25.08;;;;;;;1.17;79.64;99667.90;1600411;89;21017;-76
2022/12/21 11:00:56;;;;;;;53.90;21.05;;;;;;;1.19;79.57;99657.27;1604081;88;20996;-76
2022/12/21 11:03:36;;;;;;;68.95;23.25;;;;;;;1.34;79.65;99663.55;1602415;89;21005;-76
2022/12/21 11:06:15;;;;;;;52.85;19.75;;;;;;;1.44;79.24;99660.34;1605303;88;21457;-76
2022/12/21 11:08:51;;;;;;;52.75;20.68;;;;;;;1.48;79.77;99653.16;1584948;89;21017;-77
2022/12/21 11:11:38;;;;;;;56.28;22.25;;;;;;;1.53;79.22;99647.73;1601477;88;20981;-76
2022/12/21 11:14:16;;;;;;;66.05;23.67;;;;;;;1.61;79.25;99640.16;1606198;89;21048;-76
2022/12/21 11:16:45;;;;;;;59.95;21.85;;;;;;;1.73;79.54;99645.55;1599360;88;21001;-76
2022/12/21 11:19:15;;;;;;;58.28;24.10;;;;;;;1.85;79.16;99636.34;1606213;87;21144;-77
2022/12/21 11:21:57;;;;;;;55.33;22.25;;;;;;;1.92;78.88;99635.20;1593625;89;21037;-76
2022/12/21 11:24:35;;;;;;;50.50;22.48;;;;;;;1.99;78.13;99634.50;1604055;89;21030;-77
2022/12/21 11:27:13;;;;;;;59.33;22.22;;;;;;;2.10;77.57;99631.25;1590862;89;21014;-76
2022/12/21 11:29:49;;;;;;;50.60;20.17;;;;;;;2.18;77.35;99623.27;1601830;89;21026;-77
2022/12/21 11:32:17;;;;;;;53.08;21.23;;;;;;;2.22;76.48;99619.91;1595259;89;21824;-76
2022/12/21 11:34:48;;;;;;;55.55;22.82;;;;;;;2.29;76.67;99619.59;1602035;89;20998;-76
2022/12/21 11:37:46;;;;;;;56.28;23.10;;;;;;;2.31;76.55;99604.69;1621616;87;21085;-76
2022/12/21 11:40:25;;;;;;;57.25;23.20;;;;;;;2.35;76.42;99601.76;1630136;88;21586;-77
2022/12/21 11:43:03;;;;;;;64.32;23.95;;;;;;;2.39;76.10;99598.40;1603507;89;21030;-76
2022/12/21 11:46:07;;;;;;;55.85;22.60;;;;;;;2.43;76.11;99595.44;1630197;88;21050;-77
2022/12/21 11:48:45;;;;;;;55.67;22.25;;;;;;;2.47;76.83;99590.83;1621581;87;21054;-77
2022/12/21 11:51:47;;;;;;;68.02;24.45;;;;;;;2.51;74.85;99596.45;1616194;88;21019;-76
2022/12/21 11:54:37;;;;;;;54.30;22.73;;;;;;;2.57;75.86;99594.83;1597598;89;21081;-76